SWSK weather

Fazenda São Marco Airport
Boa Vista, Roraima, Brazil

Public forecast

Using degrees Celsius for public forecast. Weather courtesy of forecast.io.

METAR (pilot weather report)

Closest report is Atlas Brasil Cantanhede Airport, 17.7 nm (32.7 km) SW. Retrieved 2019/03/24 11:00 UTC (8 minutes ago):

SBBV 241100Z 09009KT CAVOK 26/19 Q1014

TAF (pilot weather forecast)

Closest forecast is Atlas Brasil Cantanhede Airport, 17.7 nm (32.7 km) SW. Retrieved 2019/03/24 06:14 UTC (5 hours ago):

TAF SBBV 240400Z 2406/2506 09013KT CAVOK TN26/2409Z TX36/2419Z BECMG 2415/2416 9999 SCT040 BECMG 2418/2420 12012KT BECMG 2423/2501 09012KT CAVOK RM K PFM